Latest Conditions
At L.F.Wade Int. Airport
Recorded at 2:55 am
Mostly Cloudy
Temp.: 
22°C/71°F
Humidity: 
63%
Wind: 
ESE 15KT
or 17mph
UV Index: 
0
Island Observations
 
Observations
Wednesday, November 22, 2017

Observations are in local time and taken at least once an hour, or upon the start and end of specified events such as showers and thunderstorms.

Time Sky / Weather Wind Speed/Gusts Temp. R.H. Pressure
     knots (mph)  °C (°F)  %  mb / "Hg
 02:55 Mostly Cloudy  ESE 15/0 (17/0) 22(71) 63 1024 / 30.24
 01:55 Overcast  ESE 17/0 (20/0) 22(71) 60 1025 / 30.26
 00:55 Mostly Cloudy  ESE 16/0 (18/0) 22(71) 60 1025 / 30.26
 23:55 Mostly Cloudy  ESE 17/0 (20/0) 21(71) 61 1025 / 30.28
 22:55 Mostly Cloudy  E 15/0 (17/0) 21(70) 62 1026 / 30.30
 21:55 Mostly Cloudy  ESE 14/0 (16/0) 21(70) 64 1027 / 30.32
 20:55 Mostly Cloudy  E 15/0 (17/0) 21(69) 63 1026 / 30.31
 19:55 Mostly Cloudy  E 14/0 (16/0) 21(69) 61 1026 / 30.31
 18:55 Mostly Cloudy  E 14/0 (16/0) 20(69) 62 1026 / 30.31
 17:55 Partly Cloudy  E 14/0 (16/0) 20(69) 60 1026 / 30.30
 16:55 Partly Cloudy  E 14/0 (16/0) 21(69) 60 1026 / 30.29
 15:55 Partly Cloudy  E 12/0 (14/0) 21(70) 56 1026 / 30.29
 14:55 Mostly Cloudy  ENE 14/0 (16/0) 21(70) 58 1025 / 30.28
 13:55 Mostly Cloudy  ENE 13/0 (15/0) 21(70) 61 1025 / 30.28
 12:55 Mostly Cloudy  E 12/0 (14/0) 22(71) 57 1026 / 30.30
 11:55 Partly Cloudy  ENE 12/0 (14/0) 21(69) 56 1027 / 30.32
 10:55 Mostly Cloudy  ENE 12/0 (14/0) 21(69) 58 1027 / 30.33
 09:55 Mostly Cloudy  NE 12/0 (14/0) 21(69) 60 1027 / 30.33
 08:55 Mostly Cloudy  ENE 9/0 (10/0) 20(69) 57 1027 / 30.32
 07:55 Partly Cloudy  NE 8/0 (9/0) 19(67) 57 1026 / 30.30
 06:55 Few Clouds  ENE 8/0 (9/0) 19(66) 58 1025 / 30.28
 05:55 Few Clouds  NE 10/0 (12/0) 19(66) 59 1025 / 30.26
 04:55 Few Clouds  NE 11/0 (13/0) 19(67) 60 1024 / 30.25
 03:55 Few Clouds  NNE 11/0 (13/0) 20(67) 58 1023 / 30.22
 02:55 Few Clouds  NNE 11/0 (13/0) 20(67) 56 1024 / 30.23
 01:55 Partly Cloudy  N 10/0 (12/0) 20(68) 56 1024 / 30.23
 00:55 Partly Cloudy  NNE 13/0 (15/0) 20(68) 56 1023 / 30.22
 23:55 Mostly Cloudy  NNE 12/0 (14/0) 20(68) 54 1023 / 30.21
 22:55 Mostly Cloudy  NNE 8/0 (9/0) 20(68) 56 1023 / 30.20
 21:55 Few Clouds  N 11/0 (13/0) 20(68) 56 1022 / 30.19
 20:55 Partly Cloudy  N 11/0 (13/0) 20(68) 56 1022 / 30.17
 19:55 Mostly Cloudy  N 12/0 (14/0) 21(69) 55 1021 / 30.15
 18:55 Mostly Cloudy  N 14/0 (16/0) 21(70) 54 1020 / 30.12
 17:55 Mostly Cloudy  N 14/0 (16/0) 21(70) 56 1020 / 30.11
 16:55 Mostly Cloudy  N 12/0 (14/0) 21(70) 63 1019 / 30.08
 15:55 Mostly Cloudy  N 11/0 (13/0) 22(71) 59 1018 / 30.07
 14:55 Mostly Cloudy Showers N 13/0 (15/0) 21(70) 78 1018 / 30.05
 13:55 Overcast Rain NNW 12/0 (14/0) 20(68) 80 1017 / 30.04
 13:42 Overcast Rain NNW 12/0 (14/0) 21(69) 81 1017 / 30.04
 12:55 Overcast Showers NW 13/0 (15/0) 19(67) 97 1017 / 30.04
 12:30 Overcast Showers NW 11/0 (13/0) 18(65) 99 1017 / 30.03
 11:55 Overcast Rain NW 18/0 (21/0) 18(65) 99 1017 / 30.04
 11:28 Overcast Rain NW 25/35 (29/40) 19(67) 99 1017 / 30.04
 11:13 Overcast Rain NNW 19/0 (22/0) 19(67) 99 1017 / 30.03
 10:55 Overcast Rain N 20/0 (23/0) 19(67) 99 1016 / 30.01
 10:45 Overcast Rain NNW 17/0 (20/0) 19(66) 94 1016 / 30.01
 10:29 Overcast Rain NNW 15/0 (17/0) 19(66) 94 1016 / 30.01
 10:15 Overcast Rain NNW 14/0 (16/0) 19(66) 94 1017 / 30.02
 09:55 Overcast Rain N 16/0 (18/0) 19(66) 94 1016 / 29.99
 09:30 Overcast Showers N 9/0 (10/0) 22(72) 90 1015 / 29.98
 08:55 Overcast Showers WNW 16/0 (18/0) 22(72) 90 1014 / 29.95
 07:55 Mostly Cloudy  WSW 15/0 (17/0) 24(75) 78 1014 / 29.93
 06:55 Partly Cloudy  SW 13/0 (15/0) 23(74) 76 1013 / 29.91
 05:55 Few Clouds  SW 14/0 (16/0) 23(74) 75 1013 / 29.90
 04:55 Few Clouds  SW 17/0 (20/0) 23(74) 72 1012 / 29.89
 03:55 Few Clouds  SW 16/0 (18/0) 23(74) 70 1012 / 29.89
 02:55 Few Clouds  SW 18/0 (21/0) 24(74) 69 1013 / 29.91
 01:55 Few Clouds  SW 16/0 (18/0) 23(74) 70 1013 / 29.91
 00:55 Few Clouds  SSW 17/0 (20/0) 23(74) 72 1013 / 29.92
 23:55 Few Clouds  SSW 12/0 (14/0) 23(74) 77 1014 / 29.93
 22:55 Few Clouds  SSW 15/0 (17/0) 23(74) 72 1014 / 29.94
 21:55 Few Clouds  SSW 15/0 (17/0) 23(73) 68 1014 / 29.94
 20:55 Partly Cloudy  SSW 15/0 (17/0) 23(73) 63 1014 / 29.94
 19:55 Mostly Cloudy  SSW 13/0 (15/0) 23(73) 61 1014 / 29.94
 18:55 Mostly Cloudy  SSW 11/0 (13/0) 23(73) 62 1014 / 29.94
 17:55 Partly Cloudy  SSW 10/0 (12/0) 23(73) 62 1014 / 29.94
 16:55 Partly Cloudy  SW 12/0 (14/0) 23(73) 55 1014 / 29.94
 15:55 Mostly Cloudy  SSW 12/0 (14/0) 23(73) 55 1014 / 29.94
 14:55 Partly Cloudy  SSW 12/0 (14/0) 23(74) 55 1014 / 29.94
 13:55 Partly Cloudy  SSW 14/0 (16/0) 24(75) 50 1015 / 29.96
 12:55 Few Clouds  SSW 13/0 (15/0) 24(75) 48 1015 / 29.98
 11:55 Mostly Cloudy  SSW 13/0 (15/0) 24(74) 51 1016 / 30.01
 10:55 Mostly Cloudy  S 9/0 (10/0) 22(72) 59 1017 / 30.04
 09:55 Mostly Cloudy  S 9/0 (10/0) 22(72) 58 1017 / 30.04
 08:55 Mostly Cloudy  SSE 8/0 (9/0) 22(71) 56 1017 / 30.04
 07:55 Mostly Cloudy  SSE 7/0 (8/0) 22(71) 58 1017 / 30.04
 06:55 Mostly Cloudy  SE 6/0 (7/0) 21(70) 59 1017 / 30.02
 05:55 Mostly Cloudy  SSE 6/0 (7/0) 21(69) 56 1017 / 30.02
 04:55 Mostly Cloudy  ESE 7/0 (8/0) 20(69) 54 1017 / 30.02
 03:55 Mostly Cloudy  SE 8/0 (9/0) 21(69) 55 1017 / 30.02
 02:55 Mostly Cloudy  ESE 7/0 (8/0) 20(68) 53 1017 / 30.04
 01:55 Mostly Cloudy  SE 5/0 (6/0) 20(69) 53 1017 / 30.03
 00:55 Mostly Cloudy  SSE 8/0 (9/0) 20(68) 53 1017 / 30.04
 23:55 Mostly Cloudy  ENE 3/0 (3/0) 19(67) 56 1018 / 30.06
 22:55 Mostly Cloudy  E 5/0 (6/0) 19(65) 58 1018 / 30.07
 21:55 Few Clouds  E 5/0 (6/0) 18(65) 60 1018 / 30.07
 20:55 Few Clouds  ENE 5/0 (6/0) 19(67) 58 1018 / 30.05
 19:55 Mostly Cloudy  NE 7/0 (8/0) 20(68) 54 1018 / 30.05
 18:55 Mostly Cloudy  NE 7/0 (8/0) 20(68) 55 1017 / 30.03
 17:55 Partly Cloudy  NE 6/0 (7/0) 20(68) 57 1017 / 30.03
 16:55 Partly Cloudy  NNE 5/0 (6/0) 20(69) 59 1017 / 30.02
 15:55 Partly Cloudy  NE 8/0 (9/0) 20(69) 54 1016 / 30.01
 14:55 Few Clouds  N 10/0 (12/0) 21(70) 49 1016 / 30.00
 13:55 Mostly Cloudy  N 10/0 (12/0) 21(70) 53 1016 / 30.01
 12:55 Mostly Cloudy  N 9/0 (10/0) 22(71) 49 1017 / 30.02
 11:55 Partly Cloudy  N 10/0 (12/0) 21(70) 50 1017 / 30.03
 10:55 Partly Cloudy  N 12/0 (14/0) 21(69) 50 1018 / 30.05
 09:55 Partly Cloudy  NE 11/0 (13/0) 21(70) 51 1018 / 30.05
 08:55 Partly Cloudy  NE 11/0 (13/0) 20(69) 52 1017 / 30.03
 07:55 Mostly Cloudy  NNE 15/0 (17/0) 20(68) 57 1017 / 30.02
Observations from our AWOS sites are available here (password and username are both 'guest').